Northwood, North Dakota
Current Conditions -  °F | °C
As of 11:58 AM on Sunday 25 Jan 2015 (Local Time) from KRDR Reporting Station
Clear Clear  
Wind Chill: 21°   Ceiling: Unl
Heat Index: 21°   Visibility: 10mi
Dew Point: 11°   Wind: 2mph
Humidity: 66%   Direction: NA
Pressure: 30.06"   Gusts: NA
Location:  47.73°N, 97.57°W
Report Text: KRDR 251758Z AUTO VRB02KT 10SM CLR M06/M11 A3006 RMK AO2 SLP201 60000 T10611115 11061 21135 50004
Loading
Personal Weather Stations






























Interactive Weather Map New forecast layout! Learn more

10-Day Weather Forecast

Advertisements
Track Severe Weather on mobile